Time,TemperatureF,DewpointF,PressureIn,WindDirection,WindDirectionDegrees,WindSpeedMPH,WindSpeedGustMPH,Humidity,HourlyPrecipIn,Conditions,Clouds,dailyrainin,SoftwareType,DateUTC
2013-03-05 00:00:00,34.9,22.5,30.05,North,0,0.0,0.0,60,0.00,,,0.00,WUHU216HW,2013-03-05 05:00:00,
2013-03-05 00:05:00,34.9,22.5,30.05,North,0,0.0,0.0,60,0.00,,,0.00,WUHU216HW,2013-03-05 05:05:00,
2013-03-05 00:30:00,35.6,23.2,30.05,North,0,0.0,0.0,60,0.00,,,0.00,WUHU216HW,2013-03-05 05:30:00,
2013-03-05 00:35:00,35.6,23.2,30.05,North,0,0.0,0.0,60,0.00,,,0.00,WUHU216HW,2013-03-05 05:35:00,
2013-03-05 00:59:00,36.2,23.7,30.05,North,0,0.0,0.0,60,0.00,,,0.00,WUHU216HW,2013-03-05 05:59:00,
2013-03-05 01:00:00,36.2,23.7,30.05,North,0,0.0,0.0,60,0.00,,,0.00,WUHU216HW,2013-03-05 06:00:00,
2013-03-05 01:05:00,36.2,23.7,30.05,North,0,0.0,0.0,60,0.00,,,0.00,WUHU216HW,2013-03-05 06:05:00,
2013-03-05 01:30:00,36.7,24.2,30.06,North,0,0.0,0.0,60,0.00,,,0.00,WUHU216HW,2013-03-05 06:30:00,
2013-03-05 01:35:00,36.7,24.2,30.06,North,0,0.0,0.0,60,0.00,,,0.00,WUHU216HW,2013-03-05 06:35:00,
2013-03-05 01:59:00,37.1,24.1,30.06,North,0,0.0,0.0,59,0.00,,,0.00,WUHU216HW,2013-03-05 06:59:00,
2013-03-05 02:00:00,37.1,24.1,30.06,North,0,0.0,0.0,59,0.00,,,0.00,WUHU216HW,2013-03-05 07:00:00,
2013-03-05 02:05:00,37.1,24.1,30.06,North,0,0.0,0.0,59,0.00,,,0.00,WUHU216HW,2013-03-05 07:05:00,
2013-03-05 02:30:00,37.6,24.6,30.05,North,0,0.0,0.0,59,0.00,,,0.00,WUHU216HW,2013-03-05 07:30:00,
2013-03-05 02:35:00,37.6,24.6,30.05,North,0,0.0,0.0,59,0.00,,,0.00,WUHU216HW,2013-03-05 07:35:00,
2013-03-05 02:59:00,37.8,25.2,30.05,North,0,0.0,0.0,60,0.00,,,0.00,WUHU216HW,2013-03-05 07:59:00,
2013-03-05 03:00:00,37.8,25.2,30.05,North,0,0.0,0.0,60,0.00,,,0.00,WUHU216HW,2013-03-05 08:00:00,
2013-03-05 03:05:00,37.8,25.2,30.05,North,0,0.0,0.0,60,0.00,,,0.00,WUHU216HW,2013-03-05 08:05:00,
2013-03-05 03:30:00,38.2,25.8,30.05,North,0,0.0,0.0,61,0.00,,,0.00,WUHU216HW,2013-03-05 08:30:00,
2013-03-05 03:35:00,38.2,25.8,30.05,North,0,0.0,0.0,61,0.00,,,0.00,WUHU216HW,2013-03-05 08:35:00,
2013-03-05 03:59:00,38.3,26.0,30.04,North,0,0.0,0.0,61,0.00,,,0.00,WUHU216HW,2013-03-05 08:59:00,
2013-03-05 04:00:00,38.3,26.0,30.04,North,0,0.0,0.0,61,0.00,,,0.00,WUHU216HW,2013-03-05 09:00:00,
2013-03-05 04:05:00,38.3,26.0,30.04,North,0,0.0,0.0,61,0.00,,,0.00,WUHU216HW,2013-03-05 09:05:00,
2013-03-05 04:30:00,38.0,26.1,30.05,North,0,0.0,0.0,62,0.00,,,0.00,WUHU216HW,2013-03-05 09:30:00,
2013-03-05 04:35:00,38.0,26.1,30.05,North,0,0.0,0.0,62,0.00,,,0.00,WUHU216HW,2013-03-05 09:35:00,
2013-03-05 04:59:00,37.6,25.4,30.05,North,0,0.0,0.0,61,0.00,,,0.00,WUHU216HW,2013-03-05 09:59:00,
2013-03-05 05:00:00,37.6,25.4,30.05,North,0,0.0,0.0,61,0.00,,,0.00,WUHU216HW,2013-03-05 10:00:00,
2013-03-05 05:05:00,37.6,25.4,30.05,North,0,0.0,0.0,61,0.00,,,0.00,WUHU216HW,2013-03-05 10:05:00,
2013-03-05 05:30:00,36.9,25.1,30.06,North,0,0.0,0.0,62,0.00,,,0.00,WUHU216HW,2013-03-05 10:30:00,
2013-03-05 05:35:00,36.9,25.1,30.06,North,0,0.0,0.0,62,0.00,,,0.00,WUHU216HW,2013-03-05 10:35:00,
2013-03-05 05:59:00,36.2,24.5,30.05,North,0,0.0,0.0,62,0.00,,,0.00,WUHU216HW,2013-03-05 10:59:00,
2013-03-05 06:00:00,36.2,24.5,30.05,North,0,0.0,0.0,62,0.00,,,0.00,WUHU216HW,2013-03-05 11:00:00,
2013-03-05 06:05:00,36.2,24.5,30.05,North,0,0.0,0.0,62,0.00,,,0.00,WUHU216HW,2013-03-05 11:05:00,
2013-03-05 06:30:00,35.8,24.5,30.04,North,0,0.0,0.0,63,0.00,,,0.00,WUHU216HW,2013-03-05 11:30:00,
2013-03-05 06:35:00,35.8,24.5,30.04,North,0,0.0,0.0,63,0.00,,,0.00,WUHU216HW,2013-03-05 11:35:00,
2013-03-05 06:59:00,36.0,24.7,30.03,North,0,0.0,0.0,63,0.00,,,0.00,WUHU216HW,2013-03-05 11:59:00,
2013-03-05 07:00:00,36.0,24.7,30.03,North,0,0.0,0.0,63,0.00,,,0.00,WUHU216HW,2013-03-05 12:00:00,
2013-03-05 07:05:00,36.0,24.7,30.03,North,0,0.0,0.0,63,0.00,,,0.00,WUHU216HW,2013-03-05 12:05:00,
2013-03-05 07:30:00,36.4,24.9,30.03,North,0,0.0,0.0,63,0.00,,,0.00,WUHU216HW,2013-03-05 12:30:00,
2013-03-05 07:35:00,36.4,24.9,30.03,North,0,0.0,0.0,63,0.00,,,0.00,WUHU216HW,2013-03-05 12:35:00,
2013-03-05 08:00:00,37.8,26.3,30.02,North,0,0.0,0.0,63,0.00,,,0.00,WUHU216HW,2013-03-05 13:00:00,
2013-03-05 08:05:00,37.8,26.3,30.02,North,0,0.0,0.0,63,0.00,,,0.00,WUHU216HW,2013-03-05 13:05:00,
2013-03-05 08:30:00,40.0,27.9,30.03,North,0,0.0,0.0,62,0.00,,,0.00,WUHU216HW,2013-03-05 13:30:00,
2013-03-05 08:35:00,40.0,27.9,30.03,North,0,0.0,0.0,62,0.00,,,0.00,WUHU216HW,2013-03-05 13:35:00,
2013-03-05 09:00:00,42.3,29.0,30.03,North,0,0.0,0.0,59,0.00,,,0.00,WUHU216HW,2013-03-05 14:00:00,
2013-03-05 09:05:00,42.3,29.0,30.03,North,0,0.0,0.0,59,0.00,,,0.00,WUHU216HW,2013-03-05 14:05:00,
2013-03-05 09:30:00,44.1,28.9,30.02,North,0,0.0,0.0,55,0.00,,,0.00,WUHU216HW,2013-03-05 14:30:00,
2013-03-05 09:35:00,44.1,28.9,30.02,North,0,0.0,0.0,55,0.00,,,0.00,WUHU216HW,2013-03-05 14:35:00,
2013-03-05 10:00:00,44.3,28.6,30.01,North,0,0.0,0.0,54,0.00,,,0.00,WUHU216HW,2013-03-05 15:00:00,
2013-03-05 10:05:00,44.3,28.6,30.01,North,0,0.0,0.0,54,0.00,,,0.00,WUHU216HW,2013-03-05 15:05:00,
2013-03-05 10:30:00,44.3,29.1,30.01,North,0,0.0,0.0,55,0.00,,,0.00,WUHU216HW,2013-03-05 15:30:00,
2013-03-05 10:35:00,44.3,29.1,30.01,North,0,0.0,0.0,55,0.00,,,0.00,WUHU216HW,2013-03-05 15:35:00,
2013-03-05 10:59:00,44.6,29.4,30.01,North,0,0.0,0.0,55,0.00,,,0.00,WUHU216HW,2013-03-05 15:59:00,
2013-03-05 11:00:00,44.6,29.4,30.01,North,0,0.0,0.0,55,0.00,,,0.00,WUHU216HW,2013-03-05 16:00:00,
2013-03-05 11:05:00,44.6,29.4,30.01,North,0,0.0,0.0,55,0.00,,,0.00,WUHU216HW,2013-03-05 16:05:00,
2013-03-05 11:30:00,44.3,31.3,29.99,North,0,0.0,0.0,60,0.00,,,0.00,WUHU216HW,2013-03-05 16:30:00,
2013-03-05 11:35:00,44.3,31.3,29.99,North,0,0.0,0.0,60,0.00,,,0.00,WUHU216HW,2013-03-05 16:35:00,
2013-03-05 11:59:00,42.8,32.2,29.98,North,0,0.0,0.0,66,0.01,,,0.00,WUHU216HW,2013-03-05 16:59:00,
2013-03-05 12:00:00,42.8,32.2,29.98,North,0,0.0,0.0,66,0.01,,,0.00,WUHU216HW,2013-03-05 17:00:00,
2013-03-05 12:05:00,42.8,32.2,29.98,North,0,0.0,0.0,66,0.01,,,0.00,WUHU216HW,2013-03-05 17:05:00,
2013-03-05 12:30:00,42.1,30.8,29.96,North,0,0.0,0.0,64,0.02,,,0.02,WUHU216HW,2013-03-05 17:30:00,
2013-03-05 12:35:00,42.1,30.8,29.96,North,0,0.0,0.0,64,0.02,,,0.02,WUHU216HW,2013-03-05 17:35:00,
2013-03-05 12:59:00,42.1,28.4,29.94,North,0,0.0,0.0,58,0.05,,,0.02,WUHU216HW,2013-03-05 17:59:00,
2013-03-05 13:00:00,42.1,28.4,29.94,North,0,0.0,0.0,58,0.05,,,0.02,WUHU216HW,2013-03-05 18:00:00,
2013-03-05 13:05:00,42.1,28.4,29.94,North,0,0.0,0.0,58,0.05,,,0.02,WUHU216HW,2013-03-05 18:05:00,
2013-03-05 13:30:00,42.5,25.7,29.93,North,0,0.0,0.0,51,0.06,,,0.07,WUHU216HW,2013-03-05 18:30:00,
2013-03-05 13:35:00,42.5,25.7,29.93,North,0,0.0,0.0,51,0.06,,,0.07,WUHU216HW,2013-03-05 18:35:00,
2013-03-05 13:59:00,43.0,24.1,29.91,North,0,0.0,0.0,47,0.02,,,0.09,WUHU216HW,2013-03-05 18:59:00,
2013-03-05 14:00:00,43.0,24.1,29.91,North,0,0.0,0.0,47,0.02,,,0.09,WUHU216HW,2013-03-05 19:00:00,
2013-03-05 14:05:00,43.0,24.1,29.91,North,0,0.0,0.0,47,0.02,,,0.09,WUHU216HW,2013-03-05 19:05:00,
2013-03-05 14:30:00,43.6,18.8,29.89,North,0,0.0,0.0,37,0.00,,,0.09,WUHU216HW,2013-03-05 19:30:00,
2013-03-05 14:35:00,43.6,18.8,29.89,North,0,0.0,0.0,37,0.00,,,0.09,WUHU216HW,2013-03-05 19:35:00,
2013-03-05 14:59:00,43.7,19.0,29.88,North,0,0.0,0.0,37,0.00,,,0.09,WUHU216HW,2013-03-05 19:59:00,
2013-03-05 15:00:00,43.7,19.0,29.88,North,0,0.0,0.0,37,0.00,,,0.09,WUHU216HW,2013-03-05 20:00:00,
2013-03-05 15:05:00,43.7,19.0,29.88,North,0,0.0,0.0,37,0.00,,,0.09,WUHU216HW,2013-03-05 20:05:00,
2013-03-05 15:30:00,43.6,19.4,29.88,North,0,0.0,0.0,38,0.00,,,0.09,WUHU216HW,2013-03-05 20:30:00,
2013-03-05 15:35:00,43.6,19.4,29.88,North,0,0.0,0.0,38,0.00,,,0.09,WUHU216HW,2013-03-05 20:35:00,
2013-03-05 16:00:00,43.6,18.8,29.87,North,0,0.0,0.0,37,0.00,,,0.09,WUHU216HW,2013-03-05 21:00:00,
2013-03-05 16:05:00,43.6,18.8,29.87,North,0,0.0,0.0,37,0.00,,,0.09,WUHU216HW,2013-03-05 21:05:00,
2013-03-05 16:30:00,43.6,18.2,29.86,North,0,0.0,0.0,36,0.02,,,0.09,WUHU216HW,2013-03-05 21:30:00,
2013-03-05 16:35:00,43.6,18.2,29.86,North,0,0.0,0.0,36,0.02,,,0.09,WUHU216HW,2013-03-05 21:35:00,
2013-03-05 17:00:00,43.6,16.1,29.85,North,0,0.0,0.0,33,0.05,,,0.11,WUHU216HW,2013-03-05 22:00:00,
2013-03-05 17:05:00,43.6,16.1,29.85,North,0,0.0,0.0,33,0.05,,,0.11,WUHU216HW,2013-03-05 22:05:00,
2013-03-05 17:30:00,43.6,15.5,29.83,North,0,0.0,0.0,32,0.03,,,0.14,WUHU216HW,2013-03-05 22:30:00,
2013-03-05 17:35:00,43.6,15.5,29.83,North,0,0.0,0.0,32,0.03,,,0.14,WUHU216HW,2013-03-05 22:35:00,
2013-03-05 18:00:00,43.4,10.4,29.81,North,0,0.0,0.0,26,0.00,,,0.14,WUHU216HW,2013-03-05 23:00:00,
2013-03-05 18:05:00,43.4,10.4,29.81,North,0,0.0,0.0,26,0.00,,,0.14,WUHU216HW,2013-03-05 23:05:00,
2013-03-05 18:30:00,43.6,11.4,29.81,North,0,0.0,0.0,27,0.00,,,0.14,WUHU216HW,2013-03-05 23:30:00,
2013-03-05 18:35:00,43.6,11.4,29.81,North,0,0.0,0.0,27,0.00,,,0.14,WUHU216HW,2013-03-05 23:35:00,
2013-03-05 19:00:00,43.6,9.6,29.78,North,0,0.0,0.0,25,0.00,,,0.14,WUHU216HW,2013-03-06 00:00:00,
2013-03-05 19:05:00,43.6,9.6,29.78,North,0,0.0,0.0,25,0.00,,,0.14,WUHU216HW,2013-03-06 00:05:00,
2013-03-05 19:30:00,43.6,2.3,29.74,North,0,0.0,0.0,18,0.00,,,0.14,WUHU216HW,2013-03-06 00:30:00,
2013-03-05 19:35:00,43.6,2.3,29.74,North,0,0.0,0.0,18,0.00,,,0.14,WUHU216HW,2013-03-06 00:35:00,
2013-03-05 20:00:00,43.7,-7.9,29.70,North,0,0.0,0.0,11,0.00,,,0.14,WUHU216HW,2013-03-06 01:00:00,
2013-03-05 20:05:00,43.7,-7.9,29.70,North,0,0.0,0.0,11,0.00,,,0.14,WUHU216HW,2013-03-06 01:05:00,
2013-03-05 20:30:00,44.1,-9.1,29.69,North,0,0.0,0.0,6,0.00,,,0.14,WUHU216HW,2013-03-06 01:30:00,
2013-03-05 20:35:00,44.1,-9.1,29.69,North,0,0.0,0.0,6,0.00,,,0.14,WUHU216HW,2013-03-06 01:35:00,
2013-03-05 21:00:00,44.3,-8.9,29.66,North,0,0.0,0.0,5,0.02,,,0.14,WUHU216HW,2013-03-06 02:00:00,
2013-03-05 21:05:00,44.3,-8.9,29.66,North,0,0.0,0.0,5,0.02,,,0.14,WUHU216HW,2013-03-06 02:05:00,
2013-03-05 21:30:00,44.3,-8.9,29.65,North,0,0.0,0.0,5,0.09,,,0.16,WUHU216HW,2013-03-06 02:30:00,
2013-03-05 22:00:00,44.3,-8.9,29.63,North,0,0.0,0.0,1,0.09,,,0.23,WUHU216HW,2013-03-06 03:00:00,
2013-03-05 22:05:00,44.3,-8.9,29.63,North,0,0.0,0.0,1,0.09,,,0.26,WUHU216HW,2013-03-06 03:05:00,
2013-03-05 22:30:00,44.3,-8.9,29.62,North,0,0.0,0.0,6,0.04,,,0.26,WUHU216HW,2013-03-06 03:30:00,
2013-03-05 22:35:00,44.3,-8.9,29.62,North,0,0.0,0.0,6,0.04,,,0.26,WUHU216HW,2013-03-06 03:35:00,
2013-03-05 23:00:00,44.3,-8.9,29.60,North,0,0.0,0.0,3,0.03,,,0.28,WUHU216HW,2013-03-06 04:00:00,
2013-03-05 23:05:00,44.3,-8.9,29.60,North,0,0.0,0.0,3,0.03,,,0.28,WUHU216HW,2013-03-06 04:05:00,
2013-03-05 23:30:00,44.3,-8.9,29.57,North,0,0.0,0.0,1,0.01,,,0.29,WUHU216HW,2013-03-06 04:30:00,
2013-03-05 23:35:00,44.3,-8.9,29.57,North,0,0.0,0.0,1,0.01,,,0.29,WUHU216HW,2013-03-06 04:35:00,